METAR LSZS 231550Z 03009KT 1000 -SN VV006 M04/M05 Q0996 RMK T